sensor_id;sensor_type;location;lat;lon;timestamp;P1;durP1;ratioP1;P2;durP2;ratioP2
49502;SDS011;35409;48.776;9.204;2023-01-06T00:00:41;1.52;;;1.00;;
49502;SDS011;35409;48.776;9.204;2023-01-06T00:03:07;1.77;;;0.80;;
49502;SDS011;35409;48.776;9.204;2023-01-06T00:05:34;1.60;;;0.77;;
49502;SDS011;35409;48.776;9.204;2023-01-06T00:07:59;2.90;;;0.85;;
49502;SDS011;35409;48.776;9.204;2023-01-06T00:10:25;1.20;;;0.80;;
49502;SDS011;35409;48.776;9.204;2023-01-06T00:12:51;1.73;;;0.80;;
49502;SDS011;35409;48.776;9.204;2023-01-06T00:15:17;0.82;;;0.77;;
49502;SDS011;35409;48.776;9.204;2023-01-06T00:17:44;1.75;;;0.63;;
49502;SDS011;35409;48.776;9.204;2023-01-06T00:20:10;0.90;;;0.70;;
49502;SDS011;35409;48.776;9.204;2023-01-06T00:22:40;2.70;;;0.80;;
49502;SDS011;35409;48.776;9.204;2023-01-06T00:25:06;1.33;;;0.90;;
49502;SDS011;35409;48.776;9.204;2023-01-06T00:27:34;0.85;;;0.70;;
49502;SDS011;35409;48.776;9.204;2023-01-06T00:29:59;0.65;;;0.60;;
49502;SDS011;35409;48.776;9.204;2023-01-06T00:32:25;1.58;;;0.93;;
49502;SDS011;35409;48.776;9.204;2023-01-06T00:34:51;0.68;;;0.55;;
49502;SDS011;35409;48.776;9.204;2023-01-06T00:37:16;0.93;;;0.68;;
49502;SDS011;35409;48.776;9.204;2023-01-06T00:39:42;2.83;;;0.80;;
49502;SDS011;35409;48.776;9.204;2023-01-06T00:42:07;1.45;;;0.70;;
49502;SDS011;35409;48.776;9.204;2023-01-06T00:44:34;1.67;;;0.93;;
49502;SDS011;35409;48.776;9.204;2023-01-06T00:47:01;2.85;;;0.70;;
49502;SDS011;35409;48.776;9.204;2023-01-06T00:49:28;1.25;;;0.60;;
49502;SDS011;35409;48.776;9.204;2023-01-06T00:51:53;2.45;;;0.70;;
49502;SDS011;35409;48.776;9.204;2023-01-06T00:54:19;1.65;;;1.00;;
49502;SDS011;35409;48.776;9.204;2023-01-06T00:56:46;1.90;;;0.70;;
49502;SDS011;35409;48.776;9.204;2023-01-06T00:59:15;3.17;;;0.60;;
49502;SDS011;35409;48.776;9.204;2023-01-06T01:01:46;0.90;;;0.55;;
49502;SDS011;35409;48.776;9.204;2023-01-06T01:04:13;1.30;;;0.80;;
49502;SDS011;35409;48.776;9.204;2023-01-06T01:06:40;1.08;;;0.70;;
49502;SDS011;35409;48.776;9.204;2023-01-06T01:09:07;0.85;;;0.70;;
49502;SDS011;35409;48.776;9.204;2023-01-06T01:11:36;1.88;;;1.30;;
49502;SDS011;35409;48.776;9.204;2023-01-06T01:14:20;2.30;;;0.75;;
49502;SDS011;35409;48.776;9.204;2023-01-06T01:16:46;1.27;;;0.70;;
49502;SDS011;35409;48.776;9.204;2023-01-06T01:19:12;1.98;;;0.80;;
49502;SDS011;35409;48.776;9.204;2023-01-06T01:21:38;1.15;;;0.80;;
49502;SDS011;35409;48.776;9.204;2023-01-06T01:24:04;2.45;;;0.93;;
49502;SDS011;35409;48.776;9.204;2023-01-06T01:26:30;1.65;;;0.80;;
49502;SDS011;35409;48.776;9.204;2023-01-06T01:28:56;1.63;;;0.60;;
49502;SDS011;35409;48.776;9.204;2023-01-06T01:31:21;0.73;;;0.45;;
49502;SDS011;35409;48.776;9.204;2023-01-06T01:33:47;0.93;;;0.52;;
49502;SDS011;35409;48.776;9.204;2023-01-06T01:36:14;1.08;;;0.57;;
49502;SDS011;35409;48.776;9.204;2023-01-06T01:38:41;2.03;;;0.70;;
49502;SDS011;35409;48.776;9.204;2023-01-06T01:41:08;1.17;;;0.60;;
49502;SDS011;35409;48.776;9.204;2023-01-06T01:43:42;1.50;;;0.70;;
49502;SDS011;35409;48.776;9.204;2023-01-06T01:46:07;1.77;;;0.45;;
49502;SDS011;35409;48.776;9.204;2023-01-06T01:48:34;2.28;;;0.88;;
49502;SDS011;35409;48.776;9.204;2023-01-06T01:51:01;1.40;;;0.63;;
49502;SDS011;35409;48.776;9.204;2023-01-06T01:53:30;0.90;;;0.40;;
49502;SDS011;35409;48.776;9.204;2023-01-06T01:56:00;1.13;;;0.50;;
49502;SDS011;35409;48.776;9.204;2023-01-06T01:58:39;0.50;;;0.38;;
49502;SDS011;35409;48.776;9.204;2023-01-06T02:01:14;2.13;;;0.77;;
49502;SDS011;35409;48.776;9.204;2023-01-06T02:03:40;0.68;;;0.63;;
49502;SDS011;35409;48.776;9.204;2023-01-06T02:06:09;1.67;;;0.75;;
49502;SDS011;35409;48.776;9.204;2023-01-06T02:08:39;1.60;;;0.95;;
49502;SDS011;35409;48.776;9.204;2023-01-06T02:11:24;0.85;;;0.50;;
49502;SDS011;35409;48.776;9.204;2023-01-06T02:13:52;0.63;;;0.55;;
49502;SDS011;35409;48.776;9.204;2023-01-06T02:16:29;1.75;;;0.55;;
49502;SDS011;35409;48.776;9.204;2023-01-06T02:28:13;0.70;;;0.50;;
49502;SDS011;35409;48.776;9.204;2023-01-06T02:33:43;1.70;;;0.73;;
49502;SDS011;35409;48.776;9.204;2023-01-06T02:36:17;0.93;;;0.60;;
49502;SDS011;35409;48.776;9.204;2023-01-06T02:39:20;2.72;;;0.68;;
49502;SDS011;35409;48.776;9.204;2023-01-06T02:44:29;1.67;;;0.60;;
49502;SDS011;35409;48.776;9.204;2023-01-06T02:47:13;0.55;;;0.40;;
49502;SDS011;35409;48.776;9.204;2023-01-06T02:52:39;0.55;;;0.55;;
49502;SDS011;35409;48.776;9.204;2023-01-06T02:55:11;0.82;;;0.60;;
49502;SDS011;35409;48.776;9.204;2023-01-06T02:57:52;1.20;;;0.70;;
49502;SDS011;35409;48.776;9.204;2023-01-06T03:00:41;1.47;;;0.83;;
49502;SDS011;35409;48.776;9.204;2023-01-06T03:03:14;2.42;;;0.65;;
49502;SDS011;35409;48.776;9.204;2023-01-06T03:05:44;0.73;;;0.50;;
49502;SDS011;35409;48.776;9.204;2023-01-06T03:08:16;0.88;;;0.50;;
49502;SDS011;35409;48.776;9.204;2023-01-06T03:10:46;1.58;;;0.68;;
49502;SDS011;35409;48.776;9.204;2023-01-06T03:13:20;1.45;;;0.80;;
49502;SDS011;35409;48.776;9.204;2023-01-06T03:15:57;1.90;;;0.85;;
49502;SDS011;35409;48.776;9.204;2023-01-06T03:18:23;1.73;;;0.80;;
49502;SDS011;35409;48.776;9.204;2023-01-06T03:20:49;2.13;;;0.80;;
49502;SDS011;35409;48.776;9.204;2023-01-06T03:23:18;0.77;;;0.70;;
49502;SDS011;35409;48.776;9.204;2023-01-06T03:25:44;2.08;;;0.80;;
49502;SDS011;35409;48.776;9.204;2023-01-06T03:28:10;2.05;;;0.90;;
49502;SDS011;35409;48.776;9.204;2023-01-06T03:30:41;0.98;;;0.70;;
49502;SDS011;35409;48.776;9.204;2023-01-06T03:33:14;1.70;;;0.68;;
49502;SDS011;35409;48.776;9.204;2023-01-06T03:41:36;1.05;;;0.47;;
49502;SDS011;35409;48.776;9.204;2023-01-06T03:44:42;1.20;;;0.93;;
49502;SDS011;35409;48.776;9.204;2023-01-06T03:47:38;0.90;;;0.80;;
49502;SDS011;35409;48.776;9.204;2023-01-06T03:55:42;2.20;;;1.33;;
49502;SDS011;35409;48.776;9.204;2023-01-06T03:58:14;3.30;;;1.50;;
49502;SDS011;35409;48.776;9.204;2023-01-06T04:00:42;1.15;;;1.00;;
49502;SDS011;35409;48.776;9.204;2023-01-06T04:03:08;2.72;;;1.15;;
49502;SDS011;35409;48.776;9.204;2023-01-06T04:05:37;0.93;;;0.73;;
49502;SDS011;35409;48.776;9.204;2023-01-06T04:08:03;2.22;;;0.70;;
49502;SDS011;35409;48.776;9.204;2023-01-06T04:10:29;1.27;;;0.80;;
49502;SDS011;35409;48.776;9.204;2023-01-06T04:12:54;3.15;;;0.80;;
49502;SDS011;35409;48.776;9.204;2023-01-06T04:15:21;1.27;;;0.88;;
49502;SDS011;35409;48.776;9.204;2023-01-06T04:17:48;1.33;;;1.13;;
49502;SDS011;35409;48.776;9.204;2023-01-06T04:20:16;1.35;;;0.85;;
49502;SDS011;35409;48.776;9.204;2023-01-06T04:22:44;2.22;;;1.10;;
49502;SDS011;35409;48.776;9.204;2023-01-06T04:25:10;1.30;;;0.70;;
49502;SDS011;35409;48.776;9.204;2023-01-06T04:27:36;1.90;;;0.93;;
49502;SDS011;35409;48.776;9.204;2023-01-06T04:30:03;0.77;;;0.70;;
49502;SDS011;35409;48.776;9.204;2023-01-06T04:32:29;0.65;;;0.65;;
49502;SDS011;35409;48.776;9.204;2023-01-06T04:34:55;2.03;;;0.90;;
49502;SDS011;35409;48.776;9.204;2023-01-06T04:37:20;1.17;;;0.98;;
49502;SDS011;35409;48.776;9.204;2023-01-06T04:39:46;1.13;;;0.70;;
49502;SDS011;35409;48.776;9.204;2023-01-06T04:42:12;0.75;;;0.70;;
49502;SDS011;35409;48.776;9.204;2023-01-06T04:44:37;3.65;;;0.95;;
49502;SDS011;35409;48.776;9.204;2023-01-06T04:47:03;1.10;;;0.95;;
49502;SDS011;35409;48.776;9.204;2023-01-06T04:49:28;2.30;;;0.95;;
49502;SDS011;35409;48.776;9.204;2023-01-06T04:51:54;2.63;;;1.10;;
49502;SDS011;35409;48.776;9.204;2023-01-06T04:54:20;0.70;;;0.70;;
49502;SDS011;35409;48.776;9.204;2023-01-06T04:56:45;1.52;;;1.10;;
49502;SDS011;35409;48.776;9.204;2023-01-06T04:59:11;2.25;;;1.08;;
49502;SDS011;35409;48.776;9.204;2023-01-06T05:01:36;2.10;;;1.30;;
49502;SDS011;35409;48.776;9.204;2023-01-06T05:04:02;2.45;;;1.20;;
49502;SDS011;35409;48.776;9.204;2023-01-06T05:06:31;3.58;;;2.05;;
49502;SDS011;35409;48.776;9.204;2023-01-06T05:08:57;4.85;;;2.22;;
49502;SDS011;35409;48.776;9.204;2023-01-06T05:11:23;3.42;;;2.10;;
49502;SDS011;35409;48.776;9.204;2023-01-06T05:13:49;4.25;;;2.72;;
49502;SDS011;35409;48.776;9.204;2023-01-06T05:18:47;5.13;;;2.90;;
49502;SDS011;35409;48.776;9.204;2023-01-06T05:21:13;2.97;;;2.50;;
49502;SDS011;35409;48.776;9.204;2023-01-06T05:23:38;4.07;;;2.75;;
49502;SDS011;35409;48.776;9.204;2023-01-06T05:26:06;2.88;;;2.53;;
49502;SDS011;35409;48.776;9.204;2023-01-06T05:28:32;3.35;;;2.55;;
49502;SDS011;35409;48.776;9.204;2023-01-06T05:31:01;4.47;;;2.95;;
49502;SDS011;35409;48.776;9.204;2023-01-06T05:33:28;3.97;;;2.72;;
49502;SDS011;35409;48.776;9.204;2023-01-06T05:35:58;5.03;;;2.83;;
49502;SDS011;35409;48.776;9.204;2023-01-06T05:38:25;3.30;;;2.70;;
49502;SDS011;35409;48.776;9.204;2023-01-06T05:40:51;4.88;;;2.78;;
49502;SDS011;35409;48.776;9.204;2023-01-06T05:43:17;3.38;;;2.28;;
49502;SDS011;35409;48.776;9.204;2023-01-06T05:45:44;3.28;;;2.08;;
49502;SDS011;35409;48.776;9.204;2023-01-06T05:48:09;2.20;;;1.60;;
49502;SDS011;35409;48.776;9.204;2023-01-06T05:50:35;3.20;;;1.73;;
49502;SDS011;35409;48.776;9.204;2023-01-06T05:53:00;3.20;;;1.95;;
49502;SDS011;35409;48.776;9.204;2023-01-06T05:55:26;3.47;;;1.85;;
49502;SDS011;35409;48.776;9.204;2023-01-06T05:57:52;3.15;;;2.10;;
49502;SDS011;35409;48.776;9.204;2023-01-06T06:00:17;3.13;;;1.90;;
49502;SDS011;35409;48.776;9.204;2023-01-06T06:02:43;2.45;;;1.95;;
49502;SDS011;35409;48.776;9.204;2023-01-06T06:05:08;2.38;;;1.60;;
49502;SDS011;35409;48.776;9.204;2023-01-06T06:07:34;2.97;;;1.48;;
49502;SDS011;35409;48.776;9.204;2023-01-06T06:10:00;4.15;;;1.63;;
49502;SDS011;35409;48.776;9.204;2023-01-06T06:12:26;5.22;;;2.15;;
49502;SDS011;35409;48.776;9.204;2023-01-06T06:14:51;2.60;;;1.90;;
49502;SDS011;35409;48.776;9.204;2023-01-06T06:17:17;2.10;;;1.60;;
49502;SDS011;35409;48.776;9.204;2023-01-06T06:19:43;4.38;;;1.80;;
49502;SDS011;35409;48.776;9.204;2023-01-06T06:22:08;4.65;;;2.20;;
49502;SDS011;35409;48.776;9.204;2023-01-06T06:24:34;4.00;;;1.70;;
49502;SDS011;35409;48.776;9.204;2023-01-06T06:26:59;3.38;;;1.95;;
49502;SDS011;35409;48.776;9.204;2023-01-06T06:29:25;3.60;;;1.75;;
49502;SDS011;35409;48.776;9.204;2023-01-06T06:31:51;1.70;;;1.20;;
49502;SDS011;35409;48.776;9.204;2023-01-06T06:34:16;2.08;;;1.20;;
49502;SDS011;35409;48.776;9.204;2023-01-06T06:36:42;2.85;;;1.27;;
49502;SDS011;35409;48.776;9.204;2023-01-06T06:39:07;3.63;;;1.02;;
49502;SDS011;35409;48.776;9.204;2023-01-06T06:41:33;2.35;;;1.20;;
49502;SDS011;35409;48.776;9.204;2023-01-06T06:43:59;1.85;;;1.00;;
49502;SDS011;35409;48.776;9.204;2023-01-06T06:46:24;2.33;;;1.13;;
49502;SDS011;35409;48.776;9.204;2023-01-06T06:48:50;2.33;;;1.30;;
49502;SDS011;35409;48.776;9.204;2023-01-06T06:51:16;1.35;;;1.17;;
49502;SDS011;35409;48.776;9.204;2023-01-06T06:53:44;1.10;;;0.88;;
49502;SDS011;35409;48.776;9.204;2023-01-06T06:56:10;2.50;;;1.20;;
49502;SDS011;35409;48.776;9.204;2023-01-06T06:58:37;1.60;;;1.20;;
49502;SDS011;35409;48.776;9.204;2023-01-06T07:01:06;1.58;;;0.80;;
49502;SDS011;35409;48.776;9.204;2023-01-06T07:03:34;2.40;;;0.82;;
49502;SDS011;35409;48.776;9.204;2023-01-06T07:05:59;1.83;;;1.33;;
49502;SDS011;35409;48.776;9.204;2023-01-06T07:08:27;1.05;;;0.75;;
49502;SDS011;35409;48.776;9.204;2023-01-06T07:10:52;0.73;;;0.60;;
49502;SDS011;35409;48.776;9.204;2023-01-06T07:13:18;1.08;;;0.70;;
49502;SDS011;35409;48.776;9.204;2023-01-06T07:15:44;1.13;;;0.77;;
49502;SDS011;35409;48.776;9.204;2023-01-06T07:18:09;1.60;;;0.68;;
49502;SDS011;35409;48.776;9.204;2023-01-06T07:20:35;0.82;;;0.75;;
49502;SDS011;35409;48.776;9.204;2023-01-06T07:23:02;1.48;;;1.13;;
49502;SDS011;35409;48.776;9.204;2023-01-06T07:25:29;3.08;;;1.10;;
49502;SDS011;35409;48.776;9.204;2023-01-06T07:27:55;1.63;;;0.82;;
49502;SDS011;35409;48.776;9.204;2023-01-06T07:30:23;1.48;;;0.88;;
49502;SDS011;35409;48.776;9.204;2023-01-06T07:32:50;2.13;;;0.80;;
49502;SDS011;35409;48.776;9.204;2023-01-06T07:35:16;0.75;;;0.75;;
49502;SDS011;35409;48.776;9.204;2023-01-06T07:37:42;0.75;;;0.70;;
49502;SDS011;35409;48.776;9.204;2023-01-06T07:40:08;2.00;;;0.73;;
49502;SDS011;35409;48.776;9.204;2023-01-06T07:42:34;0.57;;;0.57;;
49502;SDS011;35409;48.776;9.204;2023-01-06T07:45:00;0.70;;;0.70;;
49502;SDS011;35409;48.776;9.204;2023-01-06T07:47:26;1.50;;;1.02;;
49502;SDS011;35409;48.776;9.204;2023-01-06T07:49:52;1.80;;;0.80;;
49502;SDS011;35409;48.776;9.204;2023-01-06T07:52:17;1.35;;;0.90;;
49502;SDS011;35409;48.776;9.204;2023-01-06T07:54:43;2.88;;;1.40;;
49502;SDS011;35409;48.776;9.204;2023-01-06T07:57:08;1.58;;;1.10;;
49502;SDS011;35409;48.776;9.204;2023-01-06T07:59:34;1.52;;;1.10;;
49502;SDS011;35409;48.776;9.204;2023-01-06T08:01:59;1.17;;;1.00;;
49502;SDS011;35409;48.776;9.204;2023-01-06T08:04:25;1.42;;;1.13;;
49502;SDS011;35409;48.776;9.204;2023-01-06T08:06:51;4.38;;;1.30;;
49502;SDS011;35409;48.776;9.204;2023-01-06T08:09:16;1.23;;;1.13;;
49502;SDS011;35409;48.776;9.204;2023-01-06T08:11:42;2.30;;;1.40;;
49502;SDS011;35409;48.776;9.204;2023-01-06T08:14:07;2.47;;;1.30;;
49502;SDS011;35409;48.776;9.204;2023-01-06T08:16:36;2.00;;;1.30;;
49502;SDS011;35409;48.776;9.204;2023-01-06T08:19:03;1.42;;;1.17;;
49502;SDS011;35409;48.776;9.204;2023-01-06T08:21:28;1.38;;;1.27;;
49502;SDS011;35409;48.776;9.204;2023-01-06T08:23:54;1.95;;;1.50;;
49502;SDS011;35409;48.776;9.204;2023-01-06T08:26:19;2.50;;;1.50;;
49502;SDS011;35409;48.776;9.204;2023-01-06T08:28:45;1.90;;;1.50;;
49502;SDS011;35409;48.776;9.204;2023-01-06T08:31:12;3.92;;;1.42;;
49502;SDS011;35409;48.776;9.204;2023-01-06T08:33:42;1.92;;;1.55;;
49502;SDS011;35409;48.776;9.204;2023-01-06T08:36:09;2.45;;;1.58;;
49502;SDS011;35409;48.776;9.204;2023-01-06T08:38:37;1.83;;;1.73;;
49502;SDS011;35409;48.776;9.204;2023-01-06T08:41:02;5.93;;;4.50;;
49502;SDS011;35409;48.776;9.204;2023-01-06T08:43:28;10.20;;;6.65;;
49502;SDS011;35409;48.776;9.204;2023-01-06T08:46:02;2.80;;;2.30;;
49502;SDS011;35409;48.776;9.204;2023-01-06T08:48:30;1.60;;;1.50;;
49502;SDS011;35409;48.776;9.204;2023-01-06T08:51:00;1.52;;;1.38;;
49502;SDS011;35409;48.776;9.204;2023-01-06T08:53:30;2.05;;;1.23;;
49502;SDS011;35409;48.776;9.204;2023-01-06T08:55:56;3.22;;;1.40;;
49502;SDS011;35409;48.776;9.204;2023-01-06T08:58:22;2.28;;;1.30;;
49502;SDS011;35409;48.776;9.204;2023-01-06T09:00:48;2.05;;;1.15;;
49502;SDS011;35409;48.776;9.204;2023-01-06T09:03:15;3.20;;;1.40;;
49502;SDS011;35409;48.776;9.204;2023-01-06T09:05:40;0.77;;;0.75;;
49502;SDS011;35409;48.776;9.204;2023-01-06T09:08:06;1.20;;;1.10;;
49502;SDS011;35409;48.776;9.204;2023-01-06T09:10:31;1.95;;;1.40;;
49502;SDS011;35409;48.776;9.204;2023-01-06T09:12:57;2.97;;;1.30;;
49502;SDS011;35409;48.776;9.204;2023-01-06T09:15:23;2.60;;;1.20;;
49502;SDS011;35409;48.776;9.204;2023-01-06T09:17:48;1.80;;;1.48;;
49502;SDS011;35409;48.776;9.204;2023-01-06T09:20:14;3.75;;;1.60;;
49502;SDS011;35409;48.776;9.204;2023-01-06T09:22:39;4.15;;;1.60;;
49502;SDS011;35409;48.776;9.204;2023-01-06T09:25:05;2.78;;;1.85;;
49502;SDS011;35409;48.776;9.204;2023-01-06T09:27:31;3.38;;;2.10;;
49502;SDS011;35409;48.776;9.204;2023-01-06T09:29:57;2.70;;;1.40;;
49502;SDS011;35409;48.776;9.204;2023-01-06T09:32:22;3.22;;;1.52;;
49502;SDS011;35409;48.776;9.204;2023-01-06T09:34:48;2.03;;;1.00;;
49502;SDS011;35409;48.776;9.204;2023-01-06T09:37:13;1.38;;;1.23;;
49502;SDS011;35409;48.776;9.204;2023-01-06T09:39:39;1.55;;;1.00;;
49502;SDS011;35409;48.776;9.204;2023-01-06T09:42:20;0.73;;;0.73;;
49502;SDS011;35409;48.776;9.204;2023-01-06T09:45:02;2.97;;;1.00;;
49502;SDS011;35409;48.776;9.204;2023-01-06T09:47:36;1.70;;;0.90;;
49502;SDS011;35409;48.776;9.204;2023-01-06T09:50:42;1.08;;;0.70;;
49502;SDS011;35409;48.776;9.204;2023-01-06T09:53:21;2.65;;;0.70;;
49502;SDS011;35409;48.776;9.204;2023-01-06T09:55:58;0.38;;;0.30;;
49502;SDS011;35409;48.776;9.204;2023-01-06T10:01:31;0.70;;;0.30;;
49502;SDS011;35409;48.776;9.204;2023-01-06T10:04:02;0.50;;;0.30;;
49502;SDS011;35409;48.776;9.204;2023-01-06T10:06:32;0.43;;;0.43;;
49502;SDS011;35409;48.776;9.204;2023-01-06T10:14:51;0.52;;;0.52;;
49502;SDS011;35409;48.776;9.204;2023-01-06T10:30:26;1.13;;;0.52;;
49502;SDS011;35409;48.776;9.204;2023-01-06T10:33:02;1.95;;;0.40;;
49502;SDS011;35409;48.776;9.204;2023-01-06T10:35:28;2.03;;;0.52;;
49502;SDS011;35409;48.776;9.204;2023-01-06T10:37:56;1.75;;;0.60;;
49502;SDS011;35409;48.776;9.204;2023-01-06T10:43:00;0.40;;;0.40;;
49502;SDS011;35409;48.776;9.204;2023-01-06T10:48:09;2.63;;;0.65;;
49502;SDS011;35409;48.776;9.204;2023-01-06T10:53:02;1.80;;;0.50;;
49502;SDS011;35409;48.776;9.204;2023-01-06T10:58:12;0.30;;;0.30;;
49502;SDS011;35409;48.776;9.204;2023-01-06T11:00:56;0.20;;;0.20;;
49502;SDS011;35409;48.776;9.204;2023-01-06T11:03:43;2.47;;;0.30;;
49502;SDS011;35409;48.776;9.204;2023-01-06T11:06:14;0.38;;;0.30;;
49502;SDS011;35409;48.776;9.204;2023-01-06T11:08:40;0.35;;;0.20;;
49502;SDS011;35409;48.776;9.204;2023-01-06T11:11:24;0.40;;;0.40;;
49502;SDS011;35409;48.776;9.204;2023-01-06T11:13:56;1.58;;;0.47;;
49502;SDS011;35409;48.776;9.204;2023-01-06T11:16:26;0.40;;;0.40;;
49502;SDS011;35409;48.776;9.204;2023-01-06T11:18:56;0.73;;;0.37;;
49502;SDS011;35409;48.776;9.204;2023-01-06T11:21:38;0.43;;;0.40;;
49502;SDS011;35409;48.776;9.204;2023-01-06T11:24:21;1.08;;;0.30;;
49502;SDS011;35409;48.776;9.204;2023-01-06T11:26:50;0.52;;;0.40;;
49502;SDS011;35409;48.776;9.204;2023-01-06T11:31:52;0.50;;;0.30;;
49502;SDS011;35409;48.776;9.204;2023-01-06T11:34:23;0.55;;;0.52;;
49502;SDS011;35409;48.776;9.204;2023-01-06T11:36:50;1.48;;;0.63;;
49502;SDS011;35409;48.776;9.204;2023-01-06T11:39:27;0.40;;;0.40;;
49502;SDS011;35409;48.776;9.204;2023-01-06T11:42:03;1.58;;;0.60;;
49502;SDS011;35409;48.776;9.204;2023-01-06T11:44:35;1.13;;;0.70;;
49502;SDS011;35409;48.776;9.204;2023-01-06T11:47:15;1.20;;;0.82;;
49502;SDS011;35409;48.776;9.204;2023-01-06T11:49:51;2.53;;;0.40;;
49502;SDS011;35409;48.776;9.204;2023-01-06T11:52:21;1.40;;;0.45;;
49502;SDS011;35409;48.776;9.204;2023-01-06T11:54:58;0.40;;;0.40;;
49502;SDS011;35409;48.776;9.204;2023-01-06T11:57:35;0.30;;;0.30;;
49502;SDS011;35409;48.776;9.204;2023-01-06T12:00:10;0.40;;;0.40;;
49502;SDS011;35409;48.776;9.204;2023-01-06T12:02:51;0.88;;;0.68;;
49502;SDS011;35409;48.776;9.204;2023-01-06T12:05:29;0.68;;;0.50;;
49502;SDS011;35409;48.776;9.204;2023-01-06T12:10:28;2.80;;;0.65;;
49502;SDS011;35409;48.776;9.204;2023-01-06T12:12:56;0.50;;;0.50;;
49502;SDS011;35409;48.776;9.204;2023-01-06T12:15:22;2.25;;;0.73;;
49502;SDS011;35409;48.776;9.204;2023-01-06T12:17:53;0.85;;;0.65;;
49502;SDS011;35409;48.776;9.204;2023-01-06T12:20:24;1.00;;;0.60;;
49502;SDS011;35409;48.776;9.204;2023-01-06T12:25:26;0.57;;;0.50;;
49502;SDS011;35409;48.776;9.204;2023-01-06T12:28:01;0.50;;;0.40;;
49502;SDS011;35409;48.776;9.204;2023-01-06T12:32:55;0.50;;;0.50;;
49502;SDS011;35409;48.776;9.204;2023-01-06T12:35:24;1.77;;;0.40;;
49502;SDS011;35409;48.776;9.204;2023-01-06T12:37:55;1.13;;;0.60;;
49502;SDS011;35409;48.776;9.204;2023-01-06T12:40:28;0.40;;;0.40;;
49502;SDS011;35409;48.776;9.204;2023-01-06T12:43:00;2.45;;;0.50;;
49502;SDS011;35409;48.776;9.204;2023-01-06T12:51:10;1.05;;;0.73;;
49502;SDS011;35409;48.776;9.204;2023-01-06T12:53:40;1.35;;;0.50;;
49502;SDS011;35409;48.776;9.204;2023-01-06T13:04:23;0.70;;;0.70;;
49502;SDS011;35409;48.776;9.204;2023-01-06T13:12:05;0.95;;;0.77;;
49502;SDS011;35409;48.776;9.204;2023-01-06T13:17:20;3.65;;;0.80;;
49502;SDS011;35409;48.776;9.204;2023-01-06T13:22:17;2.03;;;0.90;;
49502;SDS011;35409;48.776;9.204;2023-01-06T13:27:16;1.58;;;0.90;;
49502;SDS011;35409;48.776;9.204;2023-01-06T13:29:49;0.85;;;0.60;;
49502;SDS011;35409;48.776;9.204;2023-01-06T13:40:26;1.25;;;1.00;;
49502;SDS011;35409;48.776;9.204;2023-01-06T13:43:03;1.95;;;1.08;;
49502;SDS011;35409;48.776;9.204;2023-01-06T13:45:34;2.17;;;1.38;;
49502;SDS011;35409;48.776;9.204;2023-01-06T13:48:01;1.25;;;1.10;;
49502;SDS011;35409;48.776;9.204;2023-01-06T13:50:32;1.15;;;0.93;;
49502;SDS011;35409;48.776;9.204;2023-01-06T13:52:59;1.15;;;0.77;;
49502;SDS011;35409;48.776;9.204;2023-01-06T13:57:52;0.90;;;0.70;;
49502;SDS011;35409;48.776;9.204;2023-01-06T14:00:27;2.40;;;0.98;;
49502;SDS011;35409;48.776;9.204;2023-01-06T14:02:58;1.05;;;0.80;;
49502;SDS011;35409;48.776;9.204;2023-01-06T14:07:52;3.05;;;1.08;;
49502;SDS011;35409;48.776;9.204;2023-01-06T14:10:30;1.80;;;1.02;;
49502;SDS011;35409;48.776;9.204;2023-01-06T14:12:57;1.00;;;0.70;;
49502;SDS011;35409;48.776;9.204;2023-01-06T14:15:30;1.05;;;0.70;;
49502;SDS011;35409;48.776;9.204;2023-01-06T14:17:57;1.98;;;1.00;;
49502;SDS011;35409;48.776;9.204;2023-01-06T14:23:04;1.00;;;0.80;;
49502;SDS011;35409;48.776;9.204;2023-01-06T14:25:32;1.60;;;0.77;;
49502;SDS011;35409;48.776;9.204;2023-01-06T14:30:28;2.38;;;0.95;;
49502;SDS011;35409;48.776;9.204;2023-01-06T14:35:24;1.90;;;1.20;;
49502;SDS011;35409;48.776;9.204;2023-01-06T14:37:55;2.13;;;1.08;;
49502;SDS011;35409;48.776;9.204;2023-01-06T14:40:27;1.10;;;1.00;;
49502;SDS011;35409;48.776;9.204;2023-01-06T14:42:54;1.70;;;0.90;;
49502;SDS011;35409;48.776;9.204;2023-01-06T14:45:22;1.55;;;0.93;;
49502;SDS011;35409;48.776;9.204;2023-01-06T14:47:50;2.47;;;1.27;;
49502;SDS011;35409;48.776;9.204;2023-01-06T14:53:28;1.80;;;1.33;;
49502;SDS011;35409;48.776;9.204;2023-01-06T14:55:30;2.15;;;1.40;;
49502;SDS011;35409;48.776;9.204;2023-01-06T14:57:57;6.60;;;1.90;;
49502;SDS011;35409;48.776;9.204;2023-01-06T15:00:27;3.63;;;1.90;;
49502;SDS011;35409;48.776;9.204;2023-01-06T15:03:03;2.63;;;2.05;;
49502;SDS011;35409;48.776;9.204;2023-01-06T15:05:36;3.20;;;2.10;;
49502;SDS011;35409;48.776;9.204;2023-01-06T15:08:04;3.28;;;2.03;;
49502;SDS011;35409;48.776;9.204;2023-01-06T15:10:32;5.13;;;2.90;;
49502;SDS011;35409;48.776;9.204;2023-01-06T15:12:59;3.78;;;2.00;;
49502;SDS011;35409;48.776;9.204;2023-01-06T15:15:26;5.78;;;3.08;;
49502;SDS011;35409;48.776;9.204;2023-01-06T15:17:53;3.90;;;2.42;;
49502;SDS011;35409;48.776;9.204;2023-01-06T15:20:21;3.40;;;2.17;;
49502;SDS011;35409;48.776;9.204;2023-01-06T15:22:48;3.22;;;1.98;;
49502;SDS011;35409;48.776;9.204;2023-01-06T15:25:19;1.98;;;1.60;;
49502;SDS011;35409;48.776;9.204;2023-01-06T15:27:46;1.55;;;0.93;;
49502;SDS011;35409;48.776;9.204;2023-01-06T15:30:16;2.00;;;1.25;;
49502;SDS011;35409;48.776;9.204;2023-01-06T15:32:43;4.28;;;2.67;;
49502;SDS011;35409;48.776;9.204;2023-01-06T15:35:26;3.30;;;2.15;;
49502;SDS011;35409;48.776;9.204;2023-01-06T15:40:37;2.65;;;1.80;;
49502;SDS011;35409;48.776;9.204;2023-01-06T15:43:05;2.50;;;1.60;;
49502;SDS011;35409;48.776;9.204;2023-01-06T15:45:31;3.10;;;1.30;;
49502;SDS011;35409;48.776;9.204;2023-01-06T15:47:59;2.55;;;1.55;;
49502;SDS011;35409;48.776;9.204;2023-01-06T15:50:28;4.53;;;1.83;;
49502;SDS011;35409;48.776;9.204;2023-01-06T15:52:56;2.15;;;1.60;;
49502;SDS011;35409;48.776;9.204;2023-01-06T15:57:56;3.17;;;1.67;;
49502;SDS011;35409;48.776;9.204;2023-01-06T16:00:24;3.70;;;2.10;;
49502;SDS011;35409;48.776;9.204;2023-01-06T16:02:51;5.50;;;3.05;;
49502;SDS011;35409;48.776;9.204;2023-01-06T16:05:37;2.97;;;2.42;;
49502;SDS011;35409;48.776;9.204;2023-01-06T16:08:17;4.10;;;3.03;;
49502;SDS011;35409;48.776;9.204;2023-01-06T16:10:46;3.97;;;2.50;;
49502;SDS011;35409;48.776;9.204;2023-01-06T16:13:25;4.75;;;2.70;;
49502;SDS011;35409;48.776;9.204;2023-01-06T16:15:53;3.42;;;2.25;;
49502;SDS011;35409;48.776;9.204;2023-01-06T16:18:24;2.90;;;2.13;;
49502;SDS011;35409;48.776;9.204;2023-01-06T16:20:51;5.53;;;2.10;;
49502;SDS011;35409;48.776;9.204;2023-01-06T16:23:35;3.05;;;1.70;;
49502;SDS011;35409;48.776;9.204;2023-01-06T16:26:20;1.92;;;1.50;;
49502;SDS011;35409;48.776;9.204;2023-01-06T16:28:56;2.78;;;2.15;;
49502;SDS011;35409;48.776;9.204;2023-01-06T16:31:35;3.90;;;2.28;;
49502;SDS011;35409;48.776;9.204;2023-01-06T16:36:39;4.93;;;3.30;;
49502;SDS011;35409;48.776;9.204;2023-01-06T16:39:05;4.82;;;3.30;;
49502;SDS011;35409;48.776;9.204;2023-01-06T16:41:31;5.95;;;3.47;;
49502;SDS011;35409;48.776;9.204;2023-01-06T16:43:57;5.03;;;3.42;;
49502;SDS011;35409;48.776;9.204;2023-01-06T16:46:23;4.80;;;2.83;;
49502;SDS011;35409;48.776;9.204;2023-01-06T16:48:52;5.40;;;3.25;;
49502;SDS011;35409;48.776;9.204;2023-01-06T16:51:18;4.72;;;2.97;;
49502;SDS011;35409;48.776;9.204;2023-01-06T16:53:44;4.65;;;3.08;;
49502;SDS011;35409;48.776;9.204;2023-01-06T16:56:14;4.97;;;3.20;;
49502;SDS011;35409;48.776;9.204;2023-01-06T16:58:41;6.63;;;2.83;;
49502;SDS011;35409;48.776;9.204;2023-01-06T17:01:11;4.75;;;2.80;;
49502;SDS011;35409;48.776;9.204;2023-01-06T17:03:37;6.20;;;3.78;;
49502;SDS011;35409;48.776;9.204;2023-01-06T17:06:08;6.38;;;3.70;;
49502;SDS011;35409;48.776;9.204;2023-01-06T17:08:36;8.63;;;4.93;;
49502;SDS011;35409;48.776;9.204;2023-01-06T17:11:10;6.85;;;4.32;;